METAR Data
IDs: Format: Raw Decoded Include TAF

Data at: 0739 UTC 23 Feb 2019

PASC 230653Z 10004KT 10SM CLR M29/M33 A3018 RMK AO2 SLP224 T12891333
PASC 230553Z 10006KT 10SM CLR M29/M33 A3020 RMK AO2 SLP229 I6000 T12941333 11272 21317 56013
PASC 230453Z 09008KT 10SM CLR M30/M34 A3021 RMK AO2 SLP232 I1000 T13001339
PASC 230353Z 08010KT 10SM CLR M30/M34 A3022 RMK AO2 SLP235 T13001344
PASC 230253Z 11003KT 10SM CLR M31/M34 A3024 RMK AO2 SLP242 T13061344 55008
PASC 230153Z 12008KT 10SM CLR M30/M34 A3024 RMK AO2 SLP242 T13001344
PASC 230053Z 10009KT 10SM CLR M28/M33 A3025 RMK AO2 SLP245 T12831328
PASC 222353Z 11008KT 10SM CLR M27/M32 A3026 RMK AO2 SLP250 I6000 T12721317 11250 21317 56006
PASC 222253Z 10009KT 10SM CLR M26/M31 A3026 RMK AO2 SLP251 T12611306
PASC 222153Z 10012KT 10SM CLR M25/M29 A3027 RMK AO2 SLP252 T12501294
PASC 222053Z 09010KT 10SM CLR M28/M32 A3028 RMK AO2 SLP256 I1000 I3000 T12781322 55002
PASC 221953Z 10009KT 10SM CLR M29/M33 A3028 RMK AO2 SLP255 T12941333
PASC 221853Z 10009KT 10SM CLR M31/M34 A3028 RMK AO2 SLP257 T13061344
PASC 221753Z 10008KT 10SM CLR M32/M36 A3028 RMK AO2 SLP258 T13171356 11278 21317 53002
PASC 221653Z 08009KT 10SM CLR M31/M34 A3028 RMK AO2 SLP257 T13061344
PASC 221553Z 08010KT 10SM CLR M29/M33 A3027 RMK AO2 SLP255 T12941328
PASC 221453Z 07010KT 10SM CLR M28/M32 A3028 RMK AO2 SLP255 T12831317 58001
PASC 221353Z 08010KT 10SM CLR M29/M32 A3029 RMK AO2 SLP259 T12891322
PASC 221253Z 07009KT 10SM CLR M29/M32 A3028 RMK AO2 SLP258 T12891322
PASC 221153Z 09008KT 10SM CLR M28/M31 A3028 RMK AO2 SLP257 I6000 T12781311 11183 21278 51013
PASC 221053Z 07009KT 10SM FEW030 M27/M31 A3027 RMK AO2 SLP253 T12721306
PASC 220953Z 07011KT 10SM SCT030 M25/M29 A3026 RMK AO2 SLP248 T12501289
PASC 220853Z 06011KT 10SM FEW035 M23/M27 A3024 RMK AO2 SLP242 I3000 T12331267 411561261 51014
PASC 220753Z 06010KT 10SM SCT035 SCT065 M22/M26 A3023 RMK AO2 SLP239 T12171256
PASC 220653Z 05012KT 10SM SCT065 M19/M23 A3022 RMK AO2 SLP234 I1000 T11941233
PASC 220553Z 06009KT 10SM SCT044 OVC065 M18/M22 A3020 RMK AO2 SLP229 60000 T11831217 11156 21194 53015
PASC 220453Z 07010KT 8SM OVC042 M17/M20 A3019 RMK AO2 SNE49 SLP224 P0000 T11671200
PASC 220400Z 07012KT 5SM -SN BR OVC033 M16/M19 A3017 RMK AO2 P0000 T11611194
PASC 220353Z 07012KT 2SM -SN BR OVC010 M16/M19 A3017 RMK AO2 SLP218 P0000 T11611194
PASC 220253Z 04007KT 2SM -SN BR OVC010 M16/M19 A3016 RMK AO2 SLP214 P0000 60000 T11611194 51010
PASC 220153Z 33004KT 2SM -SN BR OVC008 M18/M22 A3014 RMK AO2 SLP208 P0000 T11781217
PASC 220120Z 00000KT 3SM -SN BR OVC005 M18/M22 A3013 RMK AO2 P0000 T11831217
PASC 220055Z 00000KT 2SM -SN BR OVC008 M19/M22 A3013 RMK AO2 P0000 T11891222
PASC 220053Z 31003KT 1 1/2SM R06/4500VP6000FT -SN BR OVC004 M19/M22 A3013 RMK AO2 SLP203 P0000 T11891222
PASC 220010Z 27003KT 1SM R06/5000VP6000FT -SN BR BKN004 OVC011 M19/M22 A3012 RMK AO2 P0000 T11941222
PASC 220003Z 26003KT 3SM -SN BR BKN004 OVC011 M19/M22 A3012 RMK AO2 P0000 T11941222
PASC 212353Z 26003KT 1SM R06/5500VP6000FT -SN BR VV004 M19/M22 A3012 RMK AO2 SLP200 P0000 60000 I6000 T11941217 11194 21261 51008
PASC 212258Z 27003KT 1 1/2SM -SN BR OVC003 M20/M22 A3011 RMK AO2 P0000 T12001222
PASC 212253Z 28004KT 1SM R06/P6000FT -SN BR BKN003 OVC007 M20/M22 A3011 RMK AO2 SLP196 VIS 3/4V13/4 P0000 T12001222
PASC 212251Z 27003KT 1SM R06/P6000FT -SN BR BKN003 OVC007 M20/M22 A3010 RMK AO2 VIS 3/4V13/4 P0000
PASC 212243Z 28003KT 1/2SM R06/4000VP6000FT -SN FZFG VV003 M20/M23 A3010 RMK AO2 VIS 1/4V3/4 P0000 T12001228
PASC 212225Z 23005KT 1/4SM R06/2000V2800FT -SN FZFG VV004 M21/M23 A3010 RMK AO2 P0000 T12061233
PASC 212153Z 29004KT 1/4SM R06/1600V1800FT -SN FZFG VV003 M20/M23 A3009 RMK AO2 SNB23 SLP192 P0000 T12001228
PASC 212053Z 23004KT 1/4SM R06/1200V1400FT FZFG VV003 M21/M23 A3008 RMK AO2 SLP187 I1000 I3000 T12111233 53012
PASC 211953Z 00000KT 1/4SM R06/1400V1800FT FZFG VV003 M23/M24 A3007 RMK AO2 SLP183 I1000 T12281244